sensor_id;sensor_type;location;lat;lon;timestamp;pressure;altitude;pressure_sealevel;temperature;humidity
35798;BME280;21918;49.940;7.774;2022-09-06T00:01:50;98843.59;;;24.79;47.06
35798;BME280;21918;49.940;7.774;2022-09-06T00:04:17;98848.50;;;24.78;47.09
35798;BME280;21918;49.940;7.774;2022-09-06T00:06:44;98843.66;;;24.75;46.92
35798;BME280;21918;49.940;7.774;2022-09-06T00:09:11;98850.53;;;24.74;47.03
35798;BME280;21918;49.940;7.774;2022-09-06T00:11:40;98844.13;;;24.70;47.26
35798;BME280;21918;49.940;7.774;2022-09-06T00:14:07;98833.63;;;24.67;47.24
35798;BME280;21918;49.940;7.774;2022-09-06T00:16:34;98830.03;;;24.67;47.26
35798;BME280;21918;49.940;7.774;2022-09-06T00:19:02;98838.88;;;24.68;47.32
35798;BME280;21918;49.940;7.774;2022-09-06T00:21:30;98838.53;;;24.67;47.32
35798;BME280;21918;49.940;7.774;2022-09-06T00:23:57;98839.72;;;24.65;47.33
35798;BME280;21918;49.940;7.774;2022-09-06T00:26:24;98839.75;;;24.62;47.48
35798;BME280;21918;49.940;7.774;2022-09-06T00:28:51;98847.03;;;24.63;47.46
35798;BME280;21918;49.940;7.774;2022-09-06T00:31:19;98855.94;;;24.65;47.13
35798;BME280;21918;49.940;7.774;2022-09-06T00:33:46;98858.69;;;24.68;47.28
35798;BME280;21918;49.940;7.774;2022-09-06T00:36:15;98857.44;;;24.73;47.23
35798;BME280;21918;49.940;7.774;2022-09-06T00:38:42;98881.34;;;24.72;47.45
35798;BME280;21918;49.940;7.774;2022-09-06T00:41:11;98899.56;;;24.71;47.23
35798;BME280;21918;49.940;7.774;2022-09-06T00:43:38;98904.84;;;24.69;47.45
35798;BME280;21918;49.940;7.774;2022-09-06T00:46:08;98896.38;;;24.62;47.41
35798;BME280;21918;49.940;7.774;2022-09-06T00:48:37;98904.53;;;24.56;47.85
35798;BME280;21918;49.940;7.774;2022-09-06T00:51:08;98910.31;;;24.46;48.12
35798;BME280;21918;49.940;7.774;2022-09-06T00:53:38;98936.25;;;24.41;48.18
35798;BME280;21918;49.940;7.774;2022-09-06T00:56:06;98946.78;;;24.40;48.29
35798;BME280;21918;49.940;7.774;2022-09-06T00:58:33;98958.84;;;24.44;48.29
35798;BME280;21918;49.940;7.774;2022-09-06T01:01:04;98978.69;;;24.44;48.25
35798;BME280;21918;49.940;7.774;2022-09-06T01:03:32;98984.34;;;24.44;48.30
35798;BME280;21918;49.940;7.774;2022-09-06T01:06:13;98989.59;;;24.46;48.20
35798;BME280;21918;49.940;7.774;2022-09-06T01:08:56;98985.91;;;24.52;48.20
35798;BME280;21918;49.940;7.774;2022-09-06T01:11:52;98995.94;;;24.57;48.29
35798;BME280;21918;49.940;7.774;2022-09-06T01:14:35;98994.16;;;24.77;48.08
35798;BME280;21918;49.940;7.774;2022-09-06T01:17:12;98990.75;;;24.93;48.45
35798;BME280;21918;49.940;7.774;2022-09-06T01:20:26;99002.97;;;24.86;48.86
35798;BME280;21918;49.940;7.774;2022-09-06T01:25:58;99023.56;;;24.90;49.41
35798;BME280;21918;49.940;7.774;2022-09-06T01:28:35;99029.56;;;24.96;49.72
35798;BME280;21918;49.940;7.774;2022-09-06T01:31:19;99036.13;;;24.89;49.89
35798;BME280;21918;49.940;7.774;2022-09-06T01:34:09;99036.88;;;24.93;50.03
35798;BME280;21918;49.940;7.774;2022-09-06T01:36:41;99032.38;;;24.99;50.54
35798;BME280;21918;49.940;7.774;2022-09-06T01:39:16;99044.13;;;24.98;50.77
35798;BME280;21918;49.940;7.774;2022-09-06T01:41:46;99043.72;;;24.99;50.58
35798;BME280;21918;49.940;7.774;2022-09-06T01:44:16;99049.03;;;24.94;51.05
35798;BME280;21918;49.940;7.774;2022-09-06T01:46:46;99052.28;;;24.92;51.47
35798;BME280;21918;49.940;7.774;2022-09-06T01:49:24;99051.53;;;24.88;51.50
35798;BME280;21918;49.940;7.774;2022-09-06T01:52:01;99043.81;;;24.89;52.07
35798;BME280;21918;49.940;7.774;2022-09-06T01:54:45;99046.34;;;24.80;52.18
35798;BME280;21918;49.940;7.774;2022-09-06T01:57:30;99034.66;;;24.74;52.74
35798;BME280;21918;49.940;7.774;2022-09-06T02:00:07;99019.63;;;24.81;52.74
35798;BME280;21918;49.940;7.774;2022-09-06T02:02:41;99009.13;;;24.78;53.36
35798;BME280;21918;49.940;7.774;2022-09-06T02:05:12;98973.97;;;24.75;53.48
35798;BME280;21918;49.940;7.774;2022-09-06T02:07:43;98962.72;;;24.64;54.38
35798;BME280;21918;49.940;7.774;2022-09-06T02:10:16;98965.41;;;24.38;56.03
35798;BME280;21918;49.940;7.774;2022-09-06T02:12:47;98948.16;;;24.22;57.24
35798;BME280;21918;49.940;7.774;2022-09-06T02:15:19;98928.00;;;24.16;57.78
35798;BME280;21918;49.940;7.774;2022-09-06T02:17:52;98939.31;;;24.16;58.37
35798;BME280;21918;49.940;7.774;2022-09-06T02:20:24;98934.09;;;24.15;58.81
35798;BME280;21918;49.940;7.774;2022-09-06T02:22:55;98910.28;;;24.09;58.89
35798;BME280;21918;49.940;7.774;2022-09-06T02:25:24;98910.34;;;24.02;59.57
35798;BME280;21918;49.940;7.774;2022-09-06T02:27:52;98907.50;;;24.02;60.07
35798;BME280;21918;49.940;7.774;2022-09-06T02:30:22;98900.22;;;24.04;60.11
35798;BME280;21918;49.940;7.774;2022-09-06T02:32:55;98903.50;;;23.99;60.30
35798;BME280;21918;49.940;7.774;2022-09-06T02:35:23;98884.06;;;24.05;60.63
35798;BME280;21918;49.940;7.774;2022-09-06T02:37:50;98868.66;;;24.06;60.83
35798;BME280;21918;49.940;7.774;2022-09-06T02:40:18;98874.31;;;24.06;60.72
35798;BME280;21918;49.940;7.774;2022-09-06T02:42:45;98873.50;;;24.09;60.85
35798;BME280;21918;49.940;7.774;2022-09-06T02:45:12;98869.00;;;24.11;60.85
35798;BME280;21918;49.940;7.774;2022-09-06T02:47:41;98862.94;;;24.13;60.97
35798;BME280;21918;49.940;7.774;2022-09-06T02:50:08;98846.38;;;24.11;61.12
35798;BME280;21918;49.940;7.774;2022-09-06T02:52:35;98827.44;;;24.08;61.04
35798;BME280;21918;49.940;7.774;2022-09-06T02:55:03;98819.31;;;24.10;61.22
35798;BME280;21918;49.940;7.774;2022-09-06T02:57:30;98819.28;;;24.14;61.20
35798;BME280;21918;49.940;7.774;2022-09-06T02:59:56;98824.47;;;24.19;61.01
35798;BME280;21918;49.940;7.774;2022-09-06T03:02:23;98808.81;;;24.11;61.22
35798;BME280;21918;49.940;7.774;2022-09-06T03:04:51;98819.38;;;24.07;61.65
35798;BME280;21918;49.940;7.774;2022-09-06T03:07:18;98818.97;;;24.08;61.67
35798;BME280;21918;49.940;7.774;2022-09-06T03:09:45;98821.81;;;24.05;61.72
35798;BME280;21918;49.940;7.774;2022-09-06T03:12:15;98816.63;;;24.00;61.81
35798;BME280;21918;49.940;7.774;2022-09-06T03:14:41;98813.78;;;24.00;62.14
35798;BME280;21918;49.940;7.774;2022-09-06T03:17:08;98799.19;;;24.01;61.83
35798;BME280;21918;49.940;7.774;2022-09-06T03:19:35;98793.13;;;24.03;61.86
35798;BME280;21918;49.940;7.774;2022-09-06T03:22:03;98788.63;;;24.09;61.75
35798;BME280;21918;49.940;7.774;2022-09-06T03:24:30;98783.78;;;24.06;61.72
35798;BME280;21918;49.940;7.774;2022-09-06T03:26:57;98791.91;;;24.04;61.61
35798;BME280;21918;49.940;7.774;2022-09-06T03:29:23;98793.53;;;24.01;61.72
35798;BME280;21918;49.940;7.774;2022-09-06T03:31:50;98789.94;;;24.01;61.53
35798;BME280;21918;49.940;7.774;2022-09-06T03:34:19;98787.53;;;23.99;61.77
35798;BME280;21918;49.940;7.774;2022-09-06T03:36:46;98787.88;;;24.01;61.81
35798;BME280;21918;49.940;7.774;2022-09-06T03:39:15;98780.59;;;24.04;61.48
35798;BME280;21918;49.940;7.774;2022-09-06T03:41:42;98789.44;;;24.06;61.46
35798;BME280;21918;49.940;7.774;2022-09-06T03:44:09;98793.50;;;24.05;61.60
35798;BME280;21918;49.940;7.774;2022-09-06T03:46:36;98787.47;;;24.03;61.27
35798;BME280;21918;49.940;7.774;2022-09-06T03:49:02;98789.50;;;24.02;61.46
35798;BME280;21918;49.940;7.774;2022-09-06T03:51:29;98790.72;;;24.01;61.43
35798;BME280;21918;49.940;7.774;2022-09-06T03:53:56;98797.19;;;24.02;61.50
35798;BME280;21918;49.940;7.774;2022-09-06T03:56:24;98794.34;;;24.02;61.21
35798;BME280;21918;49.940;7.774;2022-09-06T03:58:51;98800.44;;;24.00;61.17
35798;BME280;21918;49.940;7.774;2022-09-06T04:01:27;98792.00;;;23.97;61.08
35798;BME280;21918;49.940;7.774;2022-09-06T04:03:53;98795.19;;;23.99;61.22
35798;BME280;21918;49.940;7.774;2022-09-06T04:06:21;98800.00;;;24.02;61.13
35798;BME280;21918;49.940;7.774;2022-09-06T04:08:47;98800.81;;;24.02;60.77
35798;BME280;21918;49.940;7.774;2022-09-06T04:11:14;98804.50;;;23.96;60.90
35798;BME280;21918;49.940;7.774;2022-09-06T04:13:43;98796.84;;;23.93;60.88
35798;BME280;21918;49.940;7.774;2022-09-06T04:16:10;98806.16;;;23.93;60.96
35798;BME280;21918;49.940;7.774;2022-09-06T04:18:37;98800.09;;;23.95;60.93
35798;BME280;21918;49.940;7.774;2022-09-06T04:21:06;98802.13;;;23.91;60.77
35798;BME280;21918;49.940;7.774;2022-09-06T04:23:36;98790.84;;;23.87;60.86
35798;BME280;21918;49.940;7.774;2022-09-06T04:26:02;98799.31;;;23.87;61.00
35798;BME280;21918;49.940;7.774;2022-09-06T04:28:30;98809.44;;;23.88;61.06
35798;BME280;21918;49.940;7.774;2022-09-06T04:30:59;98808.63;;;23.88;60.67
35798;BME280;21918;49.940;7.774;2022-09-06T04:33:27;98795.72;;;23.83;60.61
35798;BME280;21918;49.940;7.774;2022-09-06T04:35:56;98807.03;;;23.83;60.47
35798;BME280;21918;49.940;7.774;2022-09-06T04:38:25;98808.63;;;23.84;60.77
35798;BME280;21918;49.940;7.774;2022-09-06T04:40:53;98809.03;;;23.86;60.55
35798;BME280;21918;49.940;7.774;2022-09-06T04:43:32;98807.03;;;23.83;60.22
35798;BME280;21918;49.940;7.774;2022-09-06T04:46:05;98813.88;;;23.86;60.39
35798;BME280;21918;49.940;7.774;2022-09-06T04:48:32;98816.34;;;23.84;60.36
35798;BME280;21918;49.940;7.774;2022-09-06T04:50:59;98816.34;;;23.80;60.16
35798;BME280;21918;49.940;7.774;2022-09-06T04:53:26;98821.22;;;23.80;60.29
35798;BME280;21918;49.940;7.774;2022-09-06T04:55:55;98828.84;;;23.83;60.28
35798;BME280;21918;49.940;7.774;2022-09-06T04:58:22;98834.13;;;23.81;60.29
35798;BME280;21918;49.940;7.774;2022-09-06T05:00:49;98834.56;;;23.76;59.76
35798;BME280;21918;49.940;7.774;2022-09-06T05:03:17;98830.53;;;23.77;59.88
35798;BME280;21918;49.940;7.774;2022-09-06T05:05:44;98841.09;;;23.73;59.78
35798;BME280;21918;49.940;7.774;2022-09-06T05:08:11;98837.88;;;23.71;59.84
35798;BME280;21918;49.940;7.774;2022-09-06T05:10:38;98845.53;;;23.74;59.87
35798;BME280;21918;49.940;7.774;2022-09-06T05:13:04;98848.34;;;23.74;59.80
35798;BME280;21918;49.940;7.774;2022-09-06T05:15:31;98848.72;;;23.76;59.74
35798;BME280;21918;49.940;7.774;2022-09-06T05:18:03;98838.56;;;23.82;59.73
35798;BME280;21918;49.940;7.774;2022-09-06T05:20:32;98845.41;;;23.84;59.42
35798;BME280;21918;49.940;7.774;2022-09-06T05:22:59;98843.84;;;23.80;59.45
35798;BME280;21918;49.940;7.774;2022-09-06T05:25:27;98851.97;;;23.74;59.50
35798;BME280;21918;49.940;7.774;2022-09-06T05:27:55;98858.88;;;23.70;59.20
35798;BME280;21918;49.940;7.774;2022-09-06T05:30:39;98855.72;;;23.61;59.51
35798;BME280;21918;49.940;7.774;2022-09-06T05:33:07;98860.50;;;23.71;59.48
35798;BME280;21918;49.940;7.774;2022-09-06T05:35:35;98859.25;;;23.72;59.09
35798;BME280;21918;49.940;7.774;2022-09-06T05:38:02;98864.13;;;23.71;59.37
35798;BME280;21918;49.940;7.774;2022-09-06T05:40:29;98869.38;;;23.73;59.24
35798;BME280;21918;49.940;7.774;2022-09-06T05:42:56;98868.50;;;23.76;59.05
35798;BME280;21918;49.940;7.774;2022-09-06T05:45:23;98871.31;;;23.79;58.83
35798;BME280;21918;49.940;7.774;2022-09-06T05:47:49;98872.97;;;23.77;58.98
35798;BME280;21918;49.940;7.774;2022-09-06T05:50:16;98871.34;;;23.76;58.74
35798;BME280;21918;49.940;7.774;2022-09-06T05:52:45;98871.34;;;23.76;58.74
35798;BME280;21918;49.940;7.774;2022-09-06T05:55:12;98875.78;;;23.77;58.62
35798;BME280;21918;49.940;7.774;2022-09-06T05:57:39;98874.97;;;23.76;58.57
35798;BME280;21918;49.940;7.774;2022-09-06T06:00:07;98878.63;;;23.77;58.52
35798;BME280;21918;49.940;7.774;2022-09-06T06:02:36;98881.09;;;23.71;58.48
35798;BME280;21918;49.940;7.774;2022-09-06T06:05:04;98878.28;;;23.68;58.56
35798;BME280;21918;49.940;7.774;2022-09-06T06:07:31;98887.59;;;23.65;58.53
35798;BME280;21918;49.940;7.774;2022-09-06T06:09:59;98880.34;;;23.64;58.54
35798;BME280;21918;49.940;7.774;2022-09-06T06:12:26;98887.59;;;23.65;58.57
35798;BME280;21918;49.940;7.774;2022-09-06T06:14:55;98889.19;;;23.66;58.59
35798;BME280;21918;49.940;7.774;2022-09-06T06:17:26;98893.66;;;23.67;58.42
35798;BME280;21918;49.940;7.774;2022-09-06T06:19:54;98889.59;;;23.68;58.37
35798;BME280;21918;49.940;7.774;2022-09-06T06:22:22;98888.00;;;23.67;58.31
35798;BME280;21918;49.940;7.774;2022-09-06T06:24:49;98892.41;;;23.68;58.40
35798;BME280;21918;49.940;7.774;2022-09-06T06:27:18;98891.19;;;23.69;58.08
35798;BME280;21918;49.940;7.774;2022-09-06T06:29:45;98886.75;;;23.68;58.25
35798;BME280;21918;49.940;7.774;2022-09-06T06:32:11;98894.84;;;23.66;58.00
35798;BME280;21918;49.940;7.774;2022-09-06T06:34:39;98892.88;;;23.63;58.12
35798;BME280;21918;49.940;7.774;2022-09-06T06:37:09;98895.31;;;23.61;58.11
35798;BME280;21918;49.940;7.774;2022-09-06T06:39:37;98891.66;;;23.60;58.21
35798;BME280;21918;49.940;7.774;2022-09-06T06:42:05;98887.63;;;23.61;58.24
35798;BME280;21918;49.940;7.774;2022-09-06T06:44:34;98886.81;;;23.61;58.15
35798;BME280;21918;49.940;7.774;2022-09-06T06:47:01;98876.34;;;23.58;58.17
35798;BME280;21918;49.940;7.774;2022-09-06T06:52:25;98879.16;;;23.58;58.42
35798;BME280;21918;49.940;7.774;2022-09-06T06:55:01;98877.97;;;23.55;58.03
35798;BME280;21918;49.940;7.774;2022-09-06T06:57:30;98879.16;;;23.61;58.12
35798;BME280;21918;49.940;7.774;2022-09-06T06:59:59;98879.09;;;23.65;58.03
35798;BME280;21918;49.940;7.774;2022-09-06T07:02:26;98883.16;;;23.64;58.08
35798;BME280;21918;49.940;7.774;2022-09-06T07:04:52;98886.78;;;23.64;58.04
35798;BME280;21918;49.940;7.774;2022-09-06T07:07:19;98889.66;;;23.61;58.22
35798;BME280;21918;49.940;7.774;2022-09-06T07:09:46;98884.00;;;23.61;58.12
35798;BME280;21918;49.940;7.774;2022-09-06T07:12:13;98894.06;;;23.62;57.95
35798;BME280;21918;49.940;7.774;2022-09-06T07:14:43;98884.81;;;23.61;57.82
35798;BME280;21918;49.940;7.774;2022-09-06T07:17:11;98890.00;;;23.66;58.03
35798;BME280;21918;49.940;7.774;2022-09-06T07:19:38;98894.44;;;23.67;58.01
35798;BME280;21918;49.940;7.774;2022-09-06T07:22:05;98902.91;;;23.71;57.95
35798;BME280;21918;49.940;7.774;2022-09-06T07:24:32;98895.59;;;23.73;57.67
35798;BME280;21918;49.940;7.774;2022-09-06T07:27:00;98890.75;;;23.74;57.59
35798;BME280;21918;49.940;7.774;2022-09-06T07:29:33;98895.66;;;23.70;57.91
35798;BME280;21918;49.940;7.774;2022-09-06T07:32:00;98894.03;;;23.69;57.95
35798;BME280;21918;49.940;7.774;2022-09-06T07:34:30;98905.31;;;23.69;57.97
35798;BME280;21918;49.940;7.774;2022-09-06T07:36:59;98890.81;;;23.67;58.04
35798;BME280;21918;49.940;7.774;2022-09-06T07:39:28;98893.59;;;23.70;58.09
35798;BME280;21918;49.940;7.774;2022-09-06T07:41:57;98894.41;;;23.71;58.25
35798;BME280;21918;49.940;7.774;2022-09-06T07:44:26;98890.38;;;23.72;58.09
35798;BME280;21918;49.940;7.774;2022-09-06T07:46:56;98889.16;;;23.73;58.35
35798;BME280;21918;49.940;7.774;2022-09-06T07:49:27;98889.59;;;23.68;58.39
35798;BME280;21918;49.940;7.774;2022-09-06T07:51:55;98888.78;;;23.67;58.71
35798;BME280;21918;49.940;7.774;2022-09-06T07:54:23;98898.06;;;23.71;58.79
35798;BME280;21918;49.940;7.774;2022-09-06T07:56:53;98898.03;;;23.75;58.88
35798;BME280;21918;49.940;7.774;2022-09-06T07:59:19;98897.19;;;23.78;58.63
35798;BME280;21918;49.940;7.774;2022-09-06T08:01:46;98899.56;;;23.83;58.53
35798;BME280;21918;49.940;7.774;2022-09-06T08:04:15;98901.56;;;23.86;58.59
35798;BME280;21918;49.940;7.774;2022-09-06T08:06:45;98908.44;;;23.88;58.72
35798;BME280;21918;49.940;7.774;2022-09-06T08:09:14;98906.38;;;23.92;58.79
35798;BME280;21918;49.940;7.774;2022-09-06T08:11:42;98914.06;;;23.95;58.95
35798;BME280;21918;49.940;7.774;2022-09-06T08:14:09;98921.31;;;23.96;58.81
35798;BME280;21918;49.940;7.774;2022-09-06T08:16:36;98924.13;;;24.00;58.84
35798;BME280;21918;49.940;7.774;2022-09-06T08:19:05;98921.66;;;24.02;58.59
